sensor_id;sensor_type;location;lat;lon;timestamp;P1;durP1;ratioP1;P2;durP2;ratioP2
60233;SDS011;49514;43.538;-5.708;2022-09-21T00:01:10;4.25;;;1.02;;
60233;SDS011;49514;43.538;-5.708;2022-09-21T00:03:40;5.32;;;1.08;;
60233;SDS011;49514;43.538;-5.708;2022-09-21T00:06:09;3.78;;;1.02;;
60233;SDS011;49514;43.538;-5.708;2022-09-21T00:08:40;2.97;;;0.90;;
60233;SDS011;49514;43.538;-5.708;2022-09-21T00:11:10;5.45;;;0.90;;
60233;SDS011;49514;43.538;-5.708;2022-09-21T00:13:41;7.30;;;1.00;;
60233;SDS011;49514;43.538;-5.708;2022-09-21T00:16:11;6.18;;;1.13;;
60233;SDS011;49514;43.538;-5.708;2022-09-21T00:18:39;4.10;;;1.10;;
60233;SDS011;49514;43.538;-5.708;2022-09-21T00:21:07;4.03;;;0.98;;
60233;SDS011;49514;43.538;-5.708;2022-09-21T00:23:39;3.00;;;0.90;;
60233;SDS011;49514;43.538;-5.708;2022-09-21T00:26:07;2.45;;;0.63;;
60233;SDS011;49514;43.538;-5.708;2022-09-21T00:28:45;6.00;;;0.90;;
60233;SDS011;49514;43.538;-5.708;2022-09-21T00:31:12;4.97;;;0.77;;
60233;SDS011;49514;43.538;-5.708;2022-09-21T00:33:40;5.97;;;1.00;;
60233;SDS011;49514;43.538;-5.708;2022-09-21T00:36:12;3.67;;;0.85;;
60233;SDS011;49514;43.538;-5.708;2022-09-21T00:38:41;4.25;;;0.90;;
60233;SDS011;49514;43.538;-5.708;2022-09-21T00:41:08;5.03;;;0.90;;
60233;SDS011;49514;43.538;-5.708;2022-09-21T00:43:36;6.13;;;1.00;;
60233;SDS011;49514;43.538;-5.708;2022-09-21T00:46:16;5.22;;;0.90;;
60233;SDS011;49514;43.538;-5.708;2022-09-21T00:48:52;8.68;;;1.02;;
60233;SDS011;49514;43.538;-5.708;2022-09-21T00:51:19;3.67;;;0.90;;
60233;SDS011;49514;43.538;-5.708;2022-09-21T00:53:46;6.05;;;1.20;;
60233;SDS011;49514;43.538;-5.708;2022-09-21T00:56:17;4.15;;;1.15;;
60233;SDS011;49514;43.538;-5.708;2022-09-21T00:58:45;5.65;;;1.40;;
60233;SDS011;49514;43.538;-5.708;2022-09-21T01:01:15;3.45;;;0.95;;
60233;SDS011;49514;43.538;-5.708;2022-09-21T01:03:44;2.85;;;0.90;;
60233;SDS011;49514;43.538;-5.708;2022-09-21T01:06:12;6.78;;;1.25;;
60233;SDS011;49514;43.538;-5.708;2022-09-21T01:08:41;5.13;;;1.38;;
60233;SDS011;49514;43.538;-5.708;2022-09-21T01:30:42;5.53;;;1.60;;
60233;SDS011;49514;43.538;-5.708;2022-09-21T01:33:13;4.20;;;1.02;;
60233;SDS011;49514;43.538;-5.708;2022-09-21T01:35:47;4.28;;;1.08;;
60233;SDS011;49514;43.538;-5.708;2022-09-21T01:38:23;11.63;;;1.70;;
60233;SDS011;49514;43.538;-5.708;2022-09-21T01:41:02;5.78;;;1.10;;
60233;SDS011;49514;43.538;-5.708;2022-09-21T01:43:33;11.48;;;1.70;;
60233;SDS011;49514;43.538;-5.708;2022-09-21T01:46:12;11.77;;;2.15;;
60233;SDS011;49514;43.538;-5.708;2022-09-21T01:48:43;8.45;;;2.10;;
60233;SDS011;49514;43.538;-5.708;2022-09-21T01:51:13;15.07;;;2.63;;
60233;SDS011;49514;43.538;-5.708;2022-09-21T01:53:47;10.32;;;2.30;;
60233;SDS011;49514;43.538;-5.708;2022-09-21T01:56:35;6.10;;;1.67;;
60233;SDS011;49514;43.538;-5.708;2022-09-21T01:59:14;14.73;;;1.67;;
60233;SDS011;49514;43.538;-5.708;2022-09-21T02:02:16;7.43;;;1.25;;
60233;SDS011;49514;43.538;-5.708;2022-09-21T02:05:00;7.97;;;1.23;;
60233;SDS011;49514;43.538;-5.708;2022-09-21T02:07:29;6.45;;;1.85;;
60233;SDS011;49514;43.538;-5.708;2022-09-21T02:09:57;7.85;;;1.58;;
60233;SDS011;49514;43.538;-5.708;2022-09-21T02:12:26;13.68;;;1.70;;
60233;SDS011;49514;43.538;-5.708;2022-09-21T02:14:52;6.57;;;1.48;;
60233;SDS011;49514;43.538;-5.708;2022-09-21T02:22:34;9.75;;;1.50;;
60233;SDS011;49514;43.538;-5.708;2022-09-21T02:25:18;13.60;;;1.98;;
60233;SDS011;49514;43.538;-5.708;2022-09-21T02:27:57;11.40;;;2.25;;
60233;SDS011;49514;43.538;-5.708;2022-09-21T02:30:55;6.13;;;1.65;;
60233;SDS011;49514;43.538;-5.708;2022-09-21T02:34:09;7.72;;;1.40;;
60233;SDS011;49514;43.538;-5.708;2022-09-21T02:36:48;4.53;;;1.50;;
60233;SDS011;49514;43.538;-5.708;2022-09-21T02:39:32;6.00;;;1.63;;
60233;SDS011;49514;43.538;-5.708;2022-09-21T02:42:10;13.85;;;2.13;;
60233;SDS011;49514;43.538;-5.708;2022-09-21T02:44:50;21.25;;;3.28;;
60233;SDS011;49514;43.538;-5.708;2022-09-21T02:47:22;19.35;;;3.63;;
60233;SDS011;49514;43.538;-5.708;2022-09-21T02:49:57;29.70;;;3.40;;
60233;SDS011;49514;43.538;-5.708;2022-09-21T02:52:29;19.58;;;3.83;;
60233;SDS011;49514;43.538;-5.708;2022-09-21T02:54:57;25.55;;;2.92;;
60233;SDS011;49514;43.538;-5.708;2022-09-21T02:57:26;32.03;;;3.95;;
60233;SDS011;49514;43.538;-5.708;2022-09-21T02:59:53;24.10;;;3.50;;
60233;SDS011;49514;43.538;-5.708;2022-09-21T03:02:19;20.27;;;2.42;;
60233;SDS011;49514;43.538;-5.708;2022-09-21T03:04:46;19.83;;;2.92;;
60233;SDS011;49514;43.538;-5.708;2022-09-21T03:07:14;19.27;;;2.60;;
60233;SDS011;49514;43.538;-5.708;2022-09-21T03:09:41;25.02;;;3.47;;
60233;SDS011;49514;43.538;-5.708;2022-09-21T03:12:08;36.33;;;4.47;;
60233;SDS011;49514;43.538;-5.708;2022-09-21T03:14:35;22.25;;;3.80;;
60233;SDS011;49514;43.538;-5.708;2022-09-21T03:17:02;28.27;;;3.60;;
60233;SDS011;49514;43.538;-5.708;2022-09-21T03:19:29;15.43;;;3.53;;
60233;SDS011;49514;43.538;-5.708;2022-09-21T03:21:55;28.10;;;2.95;;
60233;SDS011;49514;43.538;-5.708;2022-09-21T03:24:22;22.30;;;3.58;;
60233;SDS011;49514;43.538;-5.708;2022-09-21T03:27:07;9.70;;;2.60;;
60233;SDS011;49514;43.538;-5.708;2022-09-21T03:29:34;12.05;;;2.88;;
60233;SDS011;49514;43.538;-5.708;2022-09-21T03:32:00;24.08;;;3.47;;
60233;SDS011;49514;43.538;-5.708;2022-09-21T03:34:27;17.13;;;3.65;;
60233;SDS011;49514;43.538;-5.708;2022-09-21T03:37:03;10.02;;;2.80;;
60233;SDS011;49514;43.538;-5.708;2022-09-21T03:39:31;6.30;;;2.25;;
60233;SDS011;49514;43.538;-5.708;2022-09-21T03:41:58;7.03;;;2.13;;
60233;SDS011;49514;43.538;-5.708;2022-09-21T03:44:25;12.57;;;2.65;;
60233;SDS011;49514;43.538;-5.708;2022-09-21T03:46:52;19.42;;;3.47;;
60233;SDS011;49514;43.538;-5.708;2022-09-21T03:49:18;20.38;;;3.30;;
60233;SDS011;49514;43.538;-5.708;2022-09-21T03:51:45;15.77;;;2.80;;
60233;SDS011;49514;43.538;-5.708;2022-09-21T03:54:12;10.15;;;2.35;;
60233;SDS011;49514;43.538;-5.708;2022-09-21T03:56:39;14.95;;;2.20;;
60233;SDS011;49514;43.538;-5.708;2022-09-21T03:59:05;17.30;;;2.33;;
60233;SDS011;49514;43.538;-5.708;2022-09-21T04:01:32;12.15;;;2.42;;
60233;SDS011;49514;43.538;-5.708;2022-09-21T04:03:59;15.93;;;2.70;;
60233;SDS011;49514;43.538;-5.708;2022-09-21T04:06:25;15.45;;;1.90;;
60233;SDS011;49514;43.538;-5.708;2022-09-21T04:08:52;25.27;;;2.97;;
60233;SDS011;49514;43.538;-5.708;2022-09-21T04:11:21;25.33;;;3.50;;
60233;SDS011;49514;43.538;-5.708;2022-09-21T04:13:48;15.45;;;3.10;;
60233;SDS011;49514;43.538;-5.708;2022-09-21T04:16:17;17.73;;;2.65;;
60233;SDS011;49514;43.538;-5.708;2022-09-21T04:18:43;21.15;;;2.28;;
60233;SDS011;49514;43.538;-5.708;2022-09-21T04:21:14;15.77;;;2.42;;
60233;SDS011;49514;43.538;-5.708;2022-09-21T04:23:44;13.98;;;2.38;;
60233;SDS011;49514;43.538;-5.708;2022-09-21T04:28:52;8.07;;;2.20;;
60233;SDS011;49514;43.538;-5.708;2022-09-21T04:31:20;14.63;;;3.40;;
60233;SDS011;49514;43.538;-5.708;2022-09-21T04:33:51;11.32;;;3.10;;
60233;SDS011;49514;43.538;-5.708;2022-09-21T04:36:20;14.23;;;2.60;;
60233;SDS011;49514;43.538;-5.708;2022-09-21T04:38:47;8.20;;;1.92;;
60233;SDS011;49514;43.538;-5.708;2022-09-21T04:41:14;4.15;;;1.60;;
60233;SDS011;49514;43.538;-5.708;2022-09-21T04:43:45;6.30;;;1.58;;
60233;SDS011;49514;43.538;-5.708;2022-09-21T04:46:14;11.32;;;2.22;;
60233;SDS011;49514;43.538;-5.708;2022-09-21T04:48:42;8.15;;;1.52;;
60233;SDS011;49514;43.538;-5.708;2022-09-21T04:51:09;5.70;;;1.67;;
60233;SDS011;49514;43.538;-5.708;2022-09-21T04:53:37;11.43;;;2.30;;
60233;SDS011;49514;43.538;-5.708;2022-09-21T04:56:06;9.73;;;2.60;;
60233;SDS011;49514;43.538;-5.708;2022-09-21T04:58:34;14.82;;;2.55;;
60233;SDS011;49514;43.538;-5.708;2022-09-21T05:01:01;10.35;;;2.40;;
60233;SDS011;49514;43.538;-5.708;2022-09-21T05:03:29;20.60;;;3.00;;
60233;SDS011;49514;43.538;-5.708;2022-09-21T05:05:56;14.15;;;3.30;;
60233;SDS011;49514;43.538;-5.708;2022-09-21T05:08:23;32.25;;;3.65;;
60233;SDS011;49514;43.538;-5.708;2022-09-21T05:11:14;27.98;;;4.20;;
60233;SDS011;49514;43.538;-5.708;2022-09-21T05:13:46;46.83;;;5.25;;
60233;SDS011;49514;43.538;-5.708;2022-09-21T05:16:13;19.23;;;3.80;;
60233;SDS011;49514;43.538;-5.708;2022-09-21T05:18:40;21.83;;;3.80;;
60233;SDS011;49514;43.538;-5.708;2022-09-21T05:21:06;22.00;;;4.97;;
60233;SDS011;49514;43.538;-5.708;2022-09-21T05:23:34;32.13;;;5.40;;
60233;SDS011;49514;43.538;-5.708;2022-09-21T05:26:01;30.25;;;6.05;;
60233;SDS011;49514;43.538;-5.708;2022-09-21T05:28:28;30.20;;;5.03;;
60233;SDS011;49514;43.538;-5.708;2022-09-21T05:33:40;40.22;;;6.95;;
60233;SDS011;49514;43.538;-5.708;2022-09-21T05:36:35;18.73;;;5.32;;
60233;SDS011;49514;43.538;-5.708;2022-09-21T05:39:15;25.40;;;6.03;;
60233;SDS011;49514;43.538;-5.708;2022-09-21T05:41:42;18.33;;;4.15;;
60233;SDS011;49514;43.538;-5.708;2022-09-21T05:44:12;32.78;;;6.55;;
60233;SDS011;49514;43.538;-5.708;2022-09-21T05:46:40;27.98;;;5.70;;
60233;SDS011;49514;43.538;-5.708;2022-09-21T05:55:01;34.13;;;4.18;;
60233;SDS011;49514;43.538;-5.708;2022-09-21T05:57:48;26.17;;;4.93;;
60233;SDS011;49514;43.538;-5.708;2022-09-21T06:00:17;20.70;;;3.45;;
60233;SDS011;49514;43.538;-5.708;2022-09-21T06:05:23;30.50;;;4.22;;
60233;SDS011;49514;43.538;-5.708;2022-09-21T06:07:50;27.77;;;4.35;;
60233;SDS011;49514;43.538;-5.708;2022-09-21T06:10:17;31.52;;;5.25;;
60233;SDS011;49514;43.538;-5.708;2022-09-21T06:12:44;29.23;;;5.40;;
60233;SDS011;49514;43.538;-5.708;2022-09-21T06:15:11;52.33;;;6.35;;
60233;SDS011;49514;43.538;-5.708;2022-09-21T06:17:39;47.42;;;6.55;;
60233;SDS011;49514;43.538;-5.708;2022-09-21T06:20:06;34.20;;;5.53;;
60233;SDS011;49514;43.538;-5.708;2022-09-21T06:22:34;32.05;;;4.53;;
60233;SDS011;49514;43.538;-5.708;2022-09-21T06:25:00;32.10;;;5.22;;
60233;SDS011;49514;43.538;-5.708;2022-09-21T06:27:27;30.92;;;7.45;;
60233;SDS011;49514;43.538;-5.708;2022-09-21T06:29:54;25.88;;;5.95;;
60233;SDS011;49514;43.538;-5.708;2022-09-21T06:32:21;24.23;;;4.90;;
60233;SDS011;49514;43.538;-5.708;2022-09-21T06:34:48;15.25;;;3.60;;
60233;SDS011;49514;43.538;-5.708;2022-09-21T06:37:15;21.58;;;3.78;;
60233;SDS011;49514;43.538;-5.708;2022-09-21T06:39:42;22.40;;;4.72;;
60233;SDS011;49514;43.538;-5.708;2022-09-21T06:42:09;37.40;;;5.68;;
60233;SDS011;49514;43.538;-5.708;2022-09-21T06:44:36;41.20;;;6.70;;
60233;SDS011;49514;43.538;-5.708;2022-09-21T06:47:03;34.50;;;5.65;;
60233;SDS011;49514;43.538;-5.708;2022-09-21T06:49:30;33.30;;;6.15;;
60233;SDS011;49514;43.538;-5.708;2022-09-21T06:51:56;33.90;;;5.10;;
60233;SDS011;49514;43.538;-5.708;2022-09-21T06:54:23;16.23;;;4.50;;
60233;SDS011;49514;43.538;-5.708;2022-09-21T06:56:50;26.60;;;5.15;;
60233;SDS011;49514;43.538;-5.708;2022-09-21T06:59:16;39.15;;;6.13;;
60233;SDS011;49514;43.538;-5.708;2022-09-21T07:01:43;42.03;;;6.70;;
60233;SDS011;49514;43.538;-5.708;2022-09-21T07:04:09;32.85;;;5.82;;
60233;SDS011;49514;43.538;-5.708;2022-09-21T07:06:36;43.97;;;6.25;;
60233;SDS011;49514;43.538;-5.708;2022-09-21T07:09:03;32.90;;;6.10;;
60233;SDS011;49514;43.538;-5.708;2022-09-21T07:11:29;33.35;;;6.25;;
60233;SDS011;49514;43.538;-5.708;2022-09-21T07:13:57;40.92;;;7.53;;
60233;SDS011;49514;43.538;-5.708;2022-09-21T07:16:25;38.90;;;7.68;;
60233;SDS011;49514;43.538;-5.708;2022-09-21T07:18:52;47.00;;;7.70;;
60233;SDS011;49514;43.538;-5.708;2022-09-21T07:21:19;47.58;;;8.10;;
60233;SDS011;49514;43.538;-5.708;2022-09-21T07:23:46;44.65;;;8.55;;
60233;SDS011;49514;43.538;-5.708;2022-09-21T07:26:13;54.80;;;9.07;;
60233;SDS011;49514;43.538;-5.708;2022-09-21T07:28:40;53.38;;;8.60;;
60233;SDS011;49514;43.538;-5.708;2022-09-21T07:31:07;55.15;;;9.68;;
60233;SDS011;49514;43.538;-5.708;2022-09-21T07:33:37;40.33;;;8.57;;
60233;SDS011;49514;43.538;-5.708;2022-09-21T07:36:03;52.90;;;9.40;;
60233;SDS011;49514;43.538;-5.708;2022-09-21T07:38:38;62.42;;;10.15;;
60233;SDS011;49514;43.538;-5.708;2022-09-21T07:41:11;42.92;;;9.75;;
60233;SDS011;49514;43.538;-5.708;2022-09-21T07:43:39;47.80;;;9.20;;
60233;SDS011;49514;43.538;-5.708;2022-09-21T07:46:07;44.53;;;8.93;;
60233;SDS011;49514;43.538;-5.708;2022-09-21T07:48:36;35.42;;;7.53;;
60233;SDS011;49514;43.538;-5.708;2022-09-21T07:51:05;40.35;;;8.55;;
60233;SDS011;49514;43.538;-5.708;2022-09-21T07:53:34;48.08;;;9.15;;
60233;SDS011;49514;43.538;-5.708;2022-09-21T07:56:03;41.05;;;7.82;;
60233;SDS011;49514;43.538;-5.708;2022-09-21T07:58:32;56.63;;;9.13;;
60233;SDS011;49514;43.538;-5.708;2022-09-21T08:01:18;59.42;;;8.25;;
60233;SDS011;49514;43.538;-5.708;2022-09-21T08:03:49;78.63;;;9.80;;
60233;SDS011;49514;43.538;-5.708;2022-09-21T08:06:16;82.72;;;9.52;;
60233;SDS011;49514;43.538;-5.708;2022-09-21T08:08:44;54.50;;;9.52;;
60233;SDS011;49514;43.538;-5.708;2022-09-21T08:11:16;67.07;;;10.20;;
60233;SDS011;49514;43.538;-5.708;2022-09-21T08:13:56;45.08;;;9.20;;
60233;SDS011;49514;43.538;-5.708;2022-09-21T08:16:25;39.75;;;7.38;;
60233;SDS011;49514;43.538;-5.708;2022-09-21T08:18:52;41.80;;;7.25;;
60233;SDS011;49514;43.538;-5.708;2022-09-21T08:21:19;34.03;;;6.45;;
60233;SDS011;49514;43.538;-5.708;2022-09-21T08:23:47;35.97;;;7.20;;
60233;SDS011;49514;43.538;-5.708;2022-09-21T08:26:16;35.45;;;7.25;;
60233;SDS011;49514;43.538;-5.708;2022-09-21T08:28:44;28.10;;;6.13;;
60233;SDS011;49514;43.538;-5.708;2022-09-21T08:31:14;24.00;;;5.88;;
60233;SDS011;49514;43.538;-5.708;2022-09-21T08:33:44;22.73;;;4.30;;
60233;SDS011;49514;43.538;-5.708;2022-09-21T08:36:11;23.42;;;4.47;;
60233;SDS011;49514;43.538;-5.708;2022-09-21T08:38:38;18.30;;;3.58;;
60233;SDS011;49514;43.538;-5.708;2022-09-21T08:43:59;16.88;;;3.60;;
60233;SDS011;49514;43.538;-5.708;2022-09-21T08:46:32;14.25;;;3.50;;
60233;SDS011;49514;43.538;-5.708;2022-09-21T08:49:05;11.77;;;2.78;;
60233;SDS011;49514;43.538;-5.708;2022-09-21T08:51:52;10.73;;;2.60;;
60233;SDS011;49514;43.538;-5.708;2022-09-21T08:54:41;7.15;;;2.30;;
60233;SDS011;49514;43.538;-5.708;2022-09-21T08:57:13;10.57;;;2.10;;
60233;SDS011;49514;43.538;-5.708;2022-09-21T08:59:42;10.85;;;2.20;;
60233;SDS011;49514;43.538;-5.708;2022-09-21T09:02:28;14.00;;;1.63;;
60233;SDS011;49514;43.538;-5.708;2022-09-21T09:13:17;7.93;;;1.95;;
60233;SDS011;49514;43.538;-5.708;2022-09-21T09:16:10;4.85;;;1.50;;
60233;SDS011;49514;43.538;-5.708;2022-09-21T09:21:20;8.20;;;1.35;;
60233;SDS011;49514;43.538;-5.708;2022-09-21T09:26:51;7.43;;;1.10;;
60233;SDS011;49514;43.538;-5.708;2022-09-21T09:32:03;4.25;;;1.10;;
60233;SDS011;49514;43.538;-5.708;2022-09-21T09:34:38;9.50;;;1.50;;
60233;SDS011;49514;43.538;-5.708;2022-09-21T09:37:13;2.47;;;1.02;;
60233;SDS011;49514;43.538;-5.708;2022-09-21T09:39:42;4.00;;;1.17;;
60233;SDS011;49514;43.538;-5.708;2022-09-21T09:42:16;3.70;;;1.13;;
60233;SDS011;49514;43.538;-5.708;2022-09-21T09:45:07;3.83;;;1.00;;
60233;SDS011;49514;43.538;-5.708;2022-09-21T09:50:12;5.28;;;1.70;;
60233;SDS011;49514;43.538;-5.708;2022-09-21T09:52:47;6.63;;;1.20;;
60233;SDS011;49514;43.538;-5.708;2022-09-21T09:55:17;5.25;;;1.40;;
60233;SDS011;49514;43.538;-5.708;2022-09-21T09:57:48;6.55;;;1.70;;
60233;SDS011;49514;43.538;-5.708;2022-09-21T10:00:17;4.85;;;1.10;;
60233;SDS011;49514;43.538;-5.708;2022-09-21T10:05:35;13.02;;;2.13;;
60233;SDS011;49514;43.538;-5.708;2022-09-21T10:08:14;4.40;;;1.40;;
60233;SDS011;49514;43.538;-5.708;2022-09-21T10:10:54;6.38;;;1.10;;
60233;SDS011;49514;43.538;-5.708;2022-09-21T10:13:55;6.07;;;1.30;;
60233;SDS011;49514;43.538;-5.708;2022-09-21T10:18:56;6.05;;;1.60;;
60233;SDS011;49514;43.538;-5.708;2022-09-21T10:23:59;4.63;;;1.10;;
60233;SDS011;49514;43.538;-5.708;2022-09-21T10:26:33;10.27;;;1.33;;
60233;SDS011;49514;43.538;-5.708;2022-09-21T10:29:17;5.70;;;1.50;;
60233;SDS011;49514;43.538;-5.708;2022-09-21T10:37:32;5.00;;;1.30;;
60233;SDS011;49514;43.538;-5.708;2022-09-21T10:40:03;4.13;;;1.15;;
60233;SDS011;49514;43.538;-5.708;2022-09-21T10:42:33;6.57;;;1.10;;
60233;SDS011;49514;43.538;-5.708;2022-09-21T10:47:40;6.25;;;1.40;;
60233;SDS011;49514;43.538;-5.708;2022-09-21T10:55:32;6.82;;;1.10;;
60233;SDS011;49514;43.538;-5.708;2022-09-21T10:58:07;4.95;;;1.02;;
60233;SDS011;49514;43.538;-5.708;2022-09-21T11:00:43;7.30;;;1.10;;
60233;SDS011;49514;43.538;-5.708;2022-09-21T11:06:06;4.90;;;1.02;;
60233;SDS011;49514;43.538;-5.708;2022-09-21T11:09:28;4.65;;;1.10;;
60233;SDS011;49514;43.538;-5.708;2022-09-21T11:19:50;5.95;;;1.25;;
60233;SDS011;49514;43.538;-5.708;2022-09-21T11:22:37;6.35;;;1.10;;
60233;SDS011;49514;43.538;-5.708;2022-09-21T11:27:55;2.22;;;1.00;;
60233;SDS011;49514;43.538;-5.708;2022-09-21T11:30:30;5.82;;;0.88;;
60233;SDS011;49514;43.538;-5.708;2022-09-21T11:33:43;7.00;;;1.27;;
60233;SDS011;49514;43.538;-5.708;2022-09-21T11:36:33;6.80;;;1.33;;
60233;SDS011;49514;43.538;-5.708;2022-09-21T11:41:57;7.65;;;1.08;;
60233;SDS011;49514;43.538;-5.708;2022-09-21T11:44:48;10.00;;;1.13;;
60233;SDS011;49514;43.538;-5.708;2022-09-21T12:21:12;4.90;;;1.08;;
60233;SDS011;49514;43.538;-5.708;2022-09-21T12:23:46;6.85;;;1.38;;
60233;SDS011;49514;43.538;-5.708;2022-09-21T12:26:15;3.72;;;0.70;;
60233;SDS011;49514;43.538;-5.708;2022-09-21T12:28:47;7.53;;;0.90;;
60233;SDS011;49514;43.538;-5.708;2022-09-21T12:33:50;5.00;;;0.88;;
60233;SDS011;49514;43.538;-5.708;2022-09-21T12:42:44;5.93;;;1.33;;
60233;SDS011;49514;43.538;-5.708;2022-09-21T12:58:12;9.93;;;1.35;;
60233;SDS011;49514;43.538;-5.708;2022-09-21T13:00:48;2.13;;;0.82;;
60233;SDS011;49514;43.538;-5.708;2022-09-21T16:06:22;6.63;;;1.02;;
60233;SDS011;49514;43.538;-5.708;2022-09-21T16:08:51;4.85;;;1.00;;
60233;SDS011;49514;43.538;-5.708;2022-09-21T16:14:09;5.28;;;1.40;;
60233;SDS011;49514;43.538;-5.708;2022-09-21T16:17:04;5.22;;;1.13;;
60233;SDS011;49514;43.538;-5.708;2022-09-21T16:27:56;7.50;;;1.52;;
60233;SDS011;49514;43.538;-5.708;2022-09-21T16:30:42;7.75;;;1.33;;
60233;SDS011;49514;43.538;-5.708;2022-09-21T16:38:54;4.63;;;1.00;;
60233;SDS011;49514;43.538;-5.708;2022-09-21T16:41:21;6.53;;;1.10;;
60233;SDS011;49514;43.538;-5.708;2022-09-21T16:53:50;6.32;;;1.73;;
60233;SDS011;49514;43.538;-5.708;2022-09-21T16:56:16;6.32;;;1.30;;
60233;SDS011;49514;43.538;-5.708;2022-09-21T16:58:44;8.75;;;1.30;;
60233;SDS011;49514;43.538;-5.708;2022-09-21T17:01:11;9.02;;;1.40;;
60233;SDS011;49514;43.538;-5.708;2022-09-21T17:03:40;5.07;;;1.30;;
60233;SDS011;49514;43.538;-5.708;2022-09-21T17:06:14;7.22;;;1.20;;
60233;SDS011;49514;43.538;-5.708;2022-09-21T17:08:47;6.45;;;1.35;;
60233;SDS011;49514;43.538;-5.708;2022-09-21T17:11:15;5.60;;;1.40;;
60233;SDS011;49514;43.538;-5.708;2022-09-21T17:13:48;4.43;;;1.40;;
60233;SDS011;49514;43.538;-5.708;2022-09-21T17:16:16;8.45;;;1.30;;
60233;SDS011;49514;43.538;-5.708;2022-09-21T17:18:45;4.53;;;1.52;;
60233;SDS011;49514;43.538;-5.708;2022-09-21T17:21:12;2.88;;;1.20;;
60233;SDS011;49514;43.538;-5.708;2022-09-21T17:23:40;3.67;;;1.55;;
60233;SDS011;49514;43.538;-5.708;2022-09-21T17:26:14;3.40;;;1.40;;
60233;SDS011;49514;43.538;-5.708;2022-09-21T17:28:44;4.88;;;1.50;;
60233;SDS011;49514;43.538;-5.708;2022-09-21T17:31:11;3.60;;;1.40;;
60233;SDS011;49514;43.538;-5.708;2022-09-21T17:33:41;5.75;;;1.50;;
60233;SDS011;49514;43.538;-5.708;2022-09-21T17:36:11;4.80;;;1.67;;
60233;SDS011;49514;43.538;-5.708;2022-09-21T17:38:39;7.85;;;1.50;;
60233;SDS011;49514;43.538;-5.708;2022-09-21T17:41:22;9.23;;;1.40;;
60233;SDS011;49514;43.538;-5.708;2022-09-21T17:46:34;6.03;;;1.20;;
60233;SDS011;49514;43.538;-5.708;2022-09-21T17:49:09;5.68;;;1.33;;
60233;SDS011;49514;43.538;-5.708;2022-09-21T17:51:37;10.77;;;1.52;;
60233;SDS011;49514;43.538;-5.708;2022-09-21T17:54:22;5.65;;;1.58;;
60233;SDS011;49514;43.538;-5.708;2022-09-21T17:56:54;5.85;;;1.35;;
60233;SDS011;49514;43.538;-5.708;2022-09-21T17:59:55;8.73;;;1.40;;
60233;SDS011;49514;43.538;-5.708;2022-09-21T18:02:31;2.25;;;0.93;;
60233;SDS011;49514;43.538;-5.708;2022-09-21T18:04:59;5.38;;;1.30;;
60233;SDS011;49514;43.538;-5.708;2022-09-21T18:07:34;10.80;;;1.58;;
60233;SDS011;49514;43.538;-5.708;2022-09-21T18:10:01;7.03;;;1.40;;
60233;SDS011;49514;43.538;-5.708;2022-09-21T18:15:00;7.32;;;1.88;;
60233;SDS011;49514;43.538;-5.708;2022-09-21T18:20:23;5.65;;;1.25;;
60233;SDS011;49514;43.538;-5.708;2022-09-21T18:23:14;6.35;;;1.40;;
60233;SDS011;49514;43.538;-5.708;2022-09-21T18:25:44;7.00;;;1.50;;
60233;SDS011;49514;43.538;-5.708;2022-09-21T18:28:23;7.72;;;1.50;;
60233;SDS011;49514;43.538;-5.708;2022-09-21T18:42:45;7.03;;;1.40;;
60233;SDS011;49514;43.538;-5.708;2022-09-21T18:45:28;6.72;;;1.60;;
60233;SDS011;49514;43.538;-5.708;2022-09-21T18:53:46;6.45;;;1.60;;
60233;SDS011;49514;43.538;-5.708;2022-09-21T18:56:31;7.90;;;1.60;;
60233;SDS011;49514;43.538;-5.708;2022-09-21T18:59:00;7.20;;;1.27;;
60233;SDS011;49514;43.538;-5.708;2022-09-21T19:01:29;4.53;;;1.50;;
60233;SDS011;49514;43.538;-5.708;2022-09-21T19:03:59;6.43;;;1.48;;
60233;SDS011;49514;43.538;-5.708;2022-09-21T19:26:32;8.48;;;1.52;;
60233;SDS011;49514;43.538;-5.708;2022-09-21T19:31:44;5.20;;;1.58;;
60233;SDS011;49514;43.538;-5.708;2022-09-21T19:34:18;4.38;;;1.38;;
60233;SDS011;49514;43.538;-5.708;2022-09-21T19:36:46;4.63;;;1.20;;
60233;SDS011;49514;43.538;-5.708;2022-09-21T19:39:13;5.05;;;1.33;;
60233;SDS011;49514;43.538;-5.708;2022-09-21T19:47:43;6.82;;;1.38;;
60233;SDS011;49514;43.538;-5.708;2022-09-21T19:50:29;3.33;;;1.40;;
60233;SDS011;49514;43.538;-5.708;2022-09-21T19:53:04;5.18;;;1.95;;
60233;SDS011;49514;43.538;-5.708;2022-09-21T19:55:50;4.70;;;1.52;;
60233;SDS011;49514;43.538;-5.708;2022-09-21T19:58:35;6.18;;;1.38;;
60233;SDS011;49514;43.538;-5.708;2022-09-21T20:01:23;6.93;;;1.40;;
60233;SDS011;49514;43.538;-5.708;2022-09-21T20:03:50;2.30;;;1.00;;
60233;SDS011;49514;43.538;-5.708;2022-09-21T20:06:35;5.60;;;1.30;;
60233;SDS011;49514;43.538;-5.708;2022-09-21T20:09:11;5.18;;;1.40;;
60233;SDS011;49514;43.538;-5.708;2022-09-21T20:12:27;3.58;;;1.15;;
60233;SDS011;49514;43.538;-5.708;2022-09-21T20:14:49;4.57;;;1.42;;
60233;SDS011;49514;43.538;-5.708;2022-09-21T20:17:24;8.20;;;1.80;;
60233;SDS011;49514;43.538;-5.708;2022-09-21T20:20:24;4.45;;;1.38;;
60233;SDS011;49514;43.538;-5.708;2022-09-21T20:22:52;5.00;;;1.33;;
60233;SDS011;49514;43.538;-5.708;2022-09-21T20:25:22;6.20;;;1.42;;
60233;SDS011;49514;43.538;-5.708;2022-09-21T20:28:01;6.88;;;1.25;;
60233;SDS011;49514;43.538;-5.708;2022-09-21T20:30:29;3.47;;;1.10;;
60233;SDS011;49514;43.538;-5.708;2022-09-21T20:32:59;4.15;;;1.40;;
60233;SDS011;49514;43.538;-5.708;2022-09-21T20:35:34;3.67;;;1.10;;
60233;SDS011;49514;43.538;-5.708;2022-09-21T20:38:01;4.25;;;1.15;;
60233;SDS011;49514;43.538;-5.708;2022-09-21T20:40:28;4.97;;;1.10;;
60233;SDS011;49514;43.538;-5.708;2022-09-21T20:42:57;3.70;;;1.40;;
60233;SDS011;49514;43.538;-5.708;2022-09-21T20:45:25;6.60;;;1.35;;
60233;SDS011;49514;43.538;-5.708;2022-09-21T20:47:53;2.42;;;0.90;;
60233;SDS011;49514;43.538;-5.708;2022-09-21T20:50:22;3.88;;;1.15;;
60233;SDS011;49514;43.538;-5.708;2022-09-21T20:52:55;3.05;;;1.13;;
60233;SDS011;49514;43.538;-5.708;2022-09-21T20:55:22;3.95;;;1.15;;
60233;SDS011;49514;43.538;-5.708;2022-09-21T20:57:49;7.78;;;1.30;;
60233;SDS011;49514;43.538;-5.708;2022-09-21T21:00:17;6.50;;;1.17;;
60233;SDS011;49514;43.538;-5.708;2022-09-21T21:02:44;2.40;;;0.90;;
60233;SDS011;49514;43.538;-5.708;2022-09-21T21:05:11;3.88;;;1.20;;
60233;SDS011;49514;43.538;-5.708;2022-09-21T21:07:39;2.13;;;1.00;;
60233;SDS011;49514;43.538;-5.708;2022-09-21T21:10:07;4.75;;;1.38;;
60233;SDS011;49514;43.538;-5.708;2022-09-21T21:12:38;4.45;;;1.27;;
60233;SDS011;49514;43.538;-5.708;2022-09-21T21:15:07;4.20;;;1.10;;
60233;SDS011;49514;43.538;-5.708;2022-09-21T21:17:35;5.60;;;1.20;;
60233;SDS011;49514;43.538;-5.708;2022-09-21T21:20:02;4.57;;;1.00;;
60233;SDS011;49514;43.538;-5.708;2022-09-21T21:22:34;6.68;;;1.20;;
60233;SDS011;49514;43.538;-5.708;2022-09-21T21:25:02;4.97;;;1.17;;
60233;SDS011;49514;43.538;-5.708;2022-09-21T21:27:29;4.97;;;1.40;;
60233;SDS011;49514;43.538;-5.708;2022-09-21T21:29:56;6.22;;;1.17;;
60233;SDS011;49514;43.538;-5.708;2022-09-21T21:32:24;6.88;;;1.40;;
60233;SDS011;49514;43.538;-5.708;2022-09-21T21:34:51;5.35;;;1.15;;
60233;SDS011;49514;43.538;-5.708;2022-09-21T21:37:19;6.82;;;1.40;;
60233;SDS011;49514;43.538;-5.708;2022-09-21T21:39:48;7.63;;;1.30;;
60233;SDS011;49514;43.538;-5.708;2022-09-21T21:42:14;3.45;;;1.20;;
60233;SDS011;49514;43.538;-5.708;2022-09-21T21:44:43;2.83;;;1.00;;
60233;SDS011;49514;43.538;-5.708;2022-09-21T21:47:12;5.45;;;1.20;;
60233;SDS011;49514;43.538;-5.708;2022-09-21T21:49:40;6.13;;;1.13;;
60233;SDS011;49514;43.538;-5.708;2022-09-21T21:52:07;3.90;;;1.10;;
60233;SDS011;49514;43.538;-5.708;2022-09-21T21:54:34;3.67;;;1.25;;